Terminal Aerodrome Forecast
Issued by NWS New Orleans/Baton Rouge, LA

Home | Current Version | Previous Version | Text Only | Print | Product List | Glossary On
Versions: 1 2 3 4 5 6 7 8 9 10 11 12 13
043
FTUS44 KLIX 112338
TAFBTR
TAF
KBTR 112338Z 1200/1224 24014G18KT P6SM SKC
     FM120300 21007KT P6SM SKC
     FM120900 VRB03KT 2SM BR BKN003
     FM121500 25006KT P6SM BKN010=

USA.gov is the U.S. government's official web portal to all federal, state and local government web resources and services.